createdAt,value
2023-02-15T00:00:03.206Z,24.00
2023-02-15T00:02:42.482Z,24.90
2023-02-15T00:05:17.152Z,25.67
2023-02-15T00:07:54.415Z,25.30
2023-02-15T00:10:29.753Z,25.27
2023-02-15T00:13:05.051Z,23.35
2023-02-15T00:15:39.561Z,25.00
2023-02-15T00:18:14.318Z,24.37
2023-02-15T00:20:48.307Z,26.07
2023-02-15T00:23:24.986Z,26.92
2023-02-15T00:26:08.617Z,40.85
2023-02-15T00:28:43.350Z,26.50
2023-02-15T00:31:17.392Z,29.00
2023-02-15T00:33:52.125Z,35.78
2023-02-15T00:36:27.089Z,33.85
2023-02-15T00:39:03.898Z,28.15
2023-02-15T00:41:38.327Z,34.15
2023-02-15T00:44:12.145Z,29.70
2023-02-15T00:46:49.062Z,43.85
2023-02-15T00:49:22.314Z,33.35
2023-02-15T00:51:56.131Z,35.08
2023-02-15T00:54:32.838Z,35.83
2023-02-15T00:57:07.150Z,31.65
2023-02-15T00:59:41.147Z,32.93
2023-02-15T01:02:15.119Z,34.65
2023-02-15T01:04:49.170Z,34.53
2023-02-15T01:07:24.237Z,42.67
2023-02-15T01:10:00.760Z,47.80
2023-02-15T01:12:35.105Z,68.13
2023-02-15T01:15:09.580Z,40.05
2023-02-15T01:17:46.802Z,35.80
2023-02-15T01:22:55.693Z,42.42
2023-02-15T01:25:33.010Z,33.42
2023-02-15T01:28:07.831Z,32.60
2023-02-15T01:30:42.439Z,35.38
2023-02-15T01:33:19.147Z,32.93
2023-02-15T01:35:57.293Z,32.20
2023-02-15T01:38:31.378Z,32.35
2023-02-15T01:41:21.372Z,32.17
2023-02-15T01:43:57.282Z,32.05
2023-02-15T01:46:34.980Z,34.57
2023-02-15T01:49:12.941Z,34.63
2023-02-15T01:51:48.287Z,33.25
2023-02-15T01:54:25.961Z,30.45
2023-02-15T01:57:04.726Z,31.10
2023-02-15T01:59:39.437Z,43.08
2023-02-15T02:02:14.237Z,39.22
2023-02-15T02:04:50.200Z,41.65
2023-02-15T02:07:27.572Z,40.53
2023-02-15T02:10:02.120Z,46.10
2023-02-15T02:12:39.920Z,35.37
2023-02-15T02:15:16.214Z,34.20
2023-02-15T02:18:03.531Z,34.05
2023-02-15T02:20:55.280Z,36.83
2023-02-15T02:23:32.092Z,34.65
2023-02-15T02:26:26.897Z,35.28
2023-02-15T02:29:30.820Z,40.93
2023-02-15T02:32:04.453Z,38.90
2023-02-15T02:34:43.070Z,42.33
2023-02-15T02:37:20.598Z,40.70
2023-02-15T02:39:51.237Z,34.88
2023-02-15T02:42:27.587Z,36.35
2023-02-15T02:45:04.169Z,44.95
2023-02-15T02:47:40.133Z,40.20
2023-02-15T02:50:17.675Z,35.92
2023-02-15T02:52:52.534Z,40.30
2023-02-15T02:55:28.587Z,40.65
2023-02-15T02:58:07.449Z,46.50
2023-02-15T03:00:44.361Z,48.17
2023-02-15T03:03:23.460Z,34.40
2023-02-15T03:06:03.365Z,35.10
2023-02-15T03:08:43.396Z,35.43
2023-02-15T03:11:18.853Z,31.70
2023-02-15T03:14:12.194Z,35.53
2023-02-15T03:35:13.543Z,32.25
2023-02-15T03:59:00.162Z,30.45
2023-02-15T04:05:21.175Z,30.25
2023-02-15T07:02:41.656Z,62.25
2023-02-15T07:05:17.512Z,69.13
2023-02-15T07:07:52.434Z,63.83
2023-02-15T07:10:27.226Z,50.60
2023-02-15T07:12:58.509Z,46.47
2023-02-15T07:15:35.886Z,61.67
2023-02-15T07:18:13.072Z,112.15
2023-02-15T07:20:47.199Z,108.38
2023-02-15T07:23:21.231Z,100.13
2023-02-15T07:26:01.294Z,67.20
2023-02-15T07:28:36.701Z,44.50
2023-02-15T07:31:11.199Z,40.50
2023-02-15T07:33:47.832Z,42.13
2023-02-15T07:36:22.221Z,39.10
2023-02-15T07:38:56.090Z,32.15
2023-02-15T07:41:30.072Z,30.85
2023-02-15T07:44:04.146Z,34.80
2023-02-15T07:46:37.363Z,30.47
2023-02-15T07:49:13.751Z,30.00
2023-02-15T07:51:48.174Z,38.85
2023-02-15T07:54:22.275Z,43.10
2023-02-15T07:56:56.123Z,37.55
2023-02-15T07:59:30.169Z,33.00
2023-02-15T08:02:04.077Z,34.00
2023-02-15T08:04:40.770Z,36.75
2023-02-15T08:07:15.459Z,30.35
2023-02-15T08:09:50.091Z,29.95
2023-02-15T08:12:24.263Z,26.85
2023-02-15T08:14:58.427Z,28.05
2023-02-15T08:17:32.151Z,32.87
2023-02-15T08:20:09.962Z,31.60
2023-02-15T08:22:44.500Z,32.05
2023-02-15T08:25:22.063Z,30.20
2023-02-15T08:27:56.228Z,26.50
2023-02-15T08:30:30.147Z,27.92
2023-02-15T08:33:04.685Z,26.23
2023-02-15T08:35:41.690Z,26.40
2023-02-15T08:38:16.611Z,26.52
2023-02-15T08:40:51.148Z,24.85
2023-02-15T08:43:25.180Z,25.80
2023-02-15T08:45:59.237Z,25.40
2023-02-15T08:48:33.365Z,22.45
2023-02-15T08:51:14.866Z,23.88
2023-02-15T08:53:50.129Z,24.60
2023-02-15T08:56:25.608Z,22.47
2023-02-15T08:59:00.251Z,23.10
2023-02-15T09:01:35.442Z,23.90
2023-02-15T09:04:11.652Z,25.30
2023-02-15T09:09:23.314Z,21.77
2023-02-15T09:11:59.547Z,23.33
2023-02-15T09:14:34.224Z,23.27
2023-02-15T09:17:08.105Z,22.98
2023-02-15T09:19:42.101Z,21.30
2023-02-15T09:22:18.686Z,22.00
2023-02-15T09:24:53.105Z,22.88
2023-02-15T09:27:27.104Z,21.80
2023-02-15T09:30:01.159Z,24.75
2023-02-15T09:32:35.123Z,23.57
2023-02-15T09:35:09.781Z,23.35
2023-02-15T09:37:46.878Z,24.20
2023-02-15T09:40:21.102Z,22.73
2023-02-15T09:43:13.618Z,24.75
2023-02-15T09:46:11.596Z,23.85
2023-02-15T09:48:46.410Z,23.63
2023-02-15T09:51:38.775Z,25.15
2023-02-15T09:54:28.499Z,24.35
2023-02-15T09:57:04.185Z,23.60
2023-02-15T09:59:41.350Z,22.83
2023-02-15T10:02:24.352Z,22.50
2023-02-15T10:04:58.352Z,22.55
2023-02-15T10:07:41.500Z,23.38
2023-02-15T10:10:23.334Z,23.35
2023-02-15T10:13:02.626Z,21.60
2023-02-15T10:15:53.270Z,21.95
2023-02-15T10:18:46.316Z,22.90
2023-02-15T10:21:26.115Z,24.63
2023-02-15T10:24:19.266Z,23.15
2023-02-15T10:26:55.763Z,23.65
2023-02-15T10:29:33.568Z,25.00
2023-02-15T10:32:13.915Z,22.58
2023-02-15T10:34:51.911Z,23.70
2023-02-15T10:37:43.729Z,22.17
2023-02-15T10:40:22.758Z,22.42
2023-02-15T10:43:18.355Z,23.23
2023-02-15T10:45:57.940Z,23.00
2023-02-15T10:48:54.737Z,21.77
2023-02-15T10:51:33.342Z,22.33
2023-02-15T10:54:13.493Z,21.67
2023-02-15T10:56:51.176Z,22.20
2023-02-15T10:59:54.593Z,22.30
2023-02-15T11:02:28.434Z,25.42
2023-02-15T11:05:07.428Z,23.40
2023-02-15T11:07:43.495Z,20.23
2023-02-15T11:12:55.699Z,21.70
2023-02-15T11:15:35.638Z,22.75
2023-02-15T11:18:13.685Z,21.63
2023-02-15T11:20:52.066Z,21.83
2023-02-15T11:23:26.148Z,21.87
2023-02-15T11:26:01.857Z,20.40
2023-02-15T11:28:38.358Z,22.00
2023-02-15T11:31:19.935Z,21.48
2023-02-15T11:33:55.597Z,20.60
2023-02-15T11:36:31.663Z,20.08
2023-02-15T11:41:43.239Z,20.13
2023-02-15T11:44:19.929Z,21.67
2023-02-15T11:46:56.889Z,21.02
2023-02-15T11:49:33.295Z,21.33
2023-02-15T11:52:06.185Z,21.65
2023-02-15T11:54:41.544Z,21.40
2023-02-15T11:57:19.250Z,24.00
2023-02-15T11:59:55.338Z,22.42
2023-02-15T12:02:31.837Z,22.00
2023-02-15T12:05:05.344Z,22.25
2023-02-15T12:07:40.567Z,24.20
2023-02-15T12:10:21.693Z,22.80
2023-02-15T12:13:13.039Z,24.20
2023-02-15T12:15:49.228Z,22.77
2023-02-15T12:18:38.826Z,24.13
2023-02-15T12:21:14.809Z,23.63
2023-02-15T12:26:29.080Z,23.58
2023-02-15T12:29:04.142Z,24.10
2023-02-15T12:31:40.919Z,23.65
2023-02-15T12:34:23.382Z,24.33
2023-02-15T12:36:59.238Z,23.38
2023-02-15T12:39:33.795Z,24.45
2023-02-15T12:42:09.326Z,23.52
2023-02-15T12:44:43.091Z,23.25
2023-02-15T12:47:28.848Z,22.15
2023-02-15T12:50:02.371Z,24.63
2023-02-15T12:52:38.810Z,23.00
2023-02-15T12:55:23.964Z,24.05
2023-02-15T12:58:11.243Z,24.92
2023-02-15T13:00:45.185Z,23.45
2023-02-15T13:03:21.958Z,23.42
2023-02-15T13:05:57.033Z,24.30
2023-02-15T13:08:35.656Z,23.27
2023-02-15T13:11:11.409Z,21.75
2023-02-15T13:13:54.336Z,22.63
2023-02-15T13:16:32.865Z,23.70
2023-02-15T13:19:08.298Z,21.80
2023-02-15T13:21:43.512Z,23.90
2023-02-15T13:24:23.199Z,22.63
2023-02-15T13:27:14.088Z,22.95
2023-02-15T13:29:50.613Z,21.98
2023-02-15T13:32:32.860Z,24.13
2023-02-15T13:35:08.391Z,23.25
2023-02-15T13:38:02.371Z,25.00
2023-02-15T13:40:36.505Z,24.97
2023-02-15T13:43:20.205Z,25.13
2023-02-15T13:46:05.376Z,24.35
2023-02-15T13:48:50.779Z,24.27
2023-02-15T13:51:26.398Z,23.83
2023-02-15T13:54:10.799Z,25.47
2023-02-15T13:56:52.229Z,24.80
2023-02-15T13:59:48.130Z,24.85
2023-02-15T14:02:40.996Z,24.70
2023-02-15T14:05:32.883Z,23.98
2023-02-15T14:08:12.641Z,24.10
2023-02-15T14:10:50.000Z,26.30
2023-02-15T14:13:52.206Z,23.92
2023-02-15T14:16:35.003Z,22.77
2023-02-15T14:19:08.414Z,24.33
2023-02-15T14:21:46.650Z,24.25
2023-02-15T14:24:27.377Z,22.65
2023-02-15T14:27:08.402Z,24.58
2023-02-15T14:29:49.456Z,21.67
2023-02-15T14:32:30.910Z,22.98
2023-02-15T14:35:05.597Z,22.55
2023-02-15T14:37:44.056Z,23.50
2023-02-15T14:40:35.633Z,21.87
2023-02-15T14:43:12.111Z,20.45
2023-02-15T14:46:00.438Z,23.10
2023-02-15T14:48:40.663Z,22.30
2023-02-15T14:51:16.129Z,22.95
2023-02-15T14:53:50.177Z,22.10
2023-02-15T14:56:29.809Z,22.40
2023-02-15T14:59:23.071Z,21.98
2023-02-15T15:01:53.482Z,23.52
2023-02-15T15:04:32.662Z,21.35
2023-02-15T15:07:12.684Z,22.67
2023-02-15T15:09:46.380Z,22.38
2023-02-15T15:12:41.941Z,22.60
2023-02-15T15:15:18.529Z,22.50
2023-02-15T15:18:00.422Z,22.93
2023-02-15T15:21:07.125Z,22.52
2023-02-15T15:23:49.884Z,22.35
2023-02-15T15:26:34.413Z,23.15
2023-02-15T15:29:08.248Z,23.33
2023-02-15T15:31:45.791Z,22.52
2023-02-15T15:35:02.177Z,22.30
2023-02-15T15:37:58.783Z,22.20
2023-02-15T15:40:46.255Z,24.17
2023-02-15T15:43:59.036Z,22.38
2023-02-15T15:46:54.849Z,24.30
2023-02-15T15:49:31.958Z,22.83
2023-02-15T15:52:06.594Z,25.03
2023-02-15T15:54:43.924Z,31.50
2023-02-15T15:57:19.821Z,27.40
2023-02-15T15:59:54.801Z,29.33
2023-02-15T16:02:29.169Z,25.80
2023-02-15T16:05:11.006Z,25.35
2023-02-15T16:07:45.451Z,23.70
2023-02-15T16:10:27.534Z,23.90
2023-02-15T16:13:02.170Z,26.80
2023-02-15T16:15:39.349Z,25.73
2023-02-15T16:18:15.978Z,24.58
2023-02-15T16:20:54.290Z,26.83
2023-02-15T16:23:49.771Z,26.20
2023-02-15T16:26:36.371Z,63.75
2023-02-15T16:32:03.495Z,36.28
2023-02-15T16:34:37.269Z,31.25
2023-02-15T16:37:18.524Z,33.45
2023-02-15T16:39:52.176Z,38.17
2023-02-15T16:42:31.270Z,36.90
2023-02-15T16:45:06.970Z,32.55
2023-02-15T16:47:43.803Z,34.20
2023-02-15T16:50:21.774Z,33.63
2023-02-15T16:52:56.198Z,35.10
2023-02-15T16:55:26.611Z,30.48
2023-02-15T16:58:05.725Z,28.50
2023-02-15T17:00:42.556Z,27.05
2023-02-15T17:03:25.487Z,29.90
2023-02-15T17:05:59.882Z,30.05
2023-02-15T17:08:35.094Z,34.07
2023-02-15T17:11:18.339Z,38.43
2023-02-15T17:14:25.880Z,30.25
2023-02-15T17:19:44.502Z,34.65
2023-02-15T17:22:22.251Z,35.38
2023-02-15T17:25:02.106Z,29.75
2023-02-15T17:27:36.397Z,29.05
2023-02-15T17:30:18.279Z,32.75
2023-02-15T17:32:57.185Z,26.40
2023-02-15T17:35:31.618Z,30.90
2023-02-15T17:38:08.322Z,28.55
2023-02-15T17:40:42.759Z,26.45
2023-02-15T17:43:20.266Z,27.95
2023-02-15T17:45:57.336Z,25.13
2023-02-15T17:48:35.198Z,28.38
2023-02-15T17:51:11.775Z,28.90
2023-02-15T17:54:09.544Z,34.47
2023-02-15T17:56:41.732Z,38.58
2023-02-15T17:59:16.924Z,47.47
2023-02-15T18:02:06.404Z,52.35
2023-02-15T18:04:53.108Z,52.67
2023-02-15T18:07:39.660Z,45.20
2023-02-15T18:13:02.521Z,33.30
2023-02-15T18:15:37.899Z,36.25
2023-02-15T18:18:16.644Z,40.65
2023-02-15T18:20:51.512Z,48.65
2023-02-15T18:23:25.383Z,49.70
2023-02-15T18:26:00.641Z,48.13
2023-02-15T18:28:33.203Z,46.70
2023-02-15T18:31:08.192Z,45.58
2023-02-15T18:33:47.632Z,43.20
2023-02-15T18:36:24.537Z,45.65
2023-02-15T18:38:59.452Z,43.15
2023-02-15T18:41:33.240Z,39.25
2023-02-15T18:44:11.344Z,37.40
2023-02-15T18:46:45.452Z,36.08
2023-02-15T18:49:22.084Z,38.37
2023-02-15T18:51:56.941Z,41.08
2023-02-15T18:54:31.665Z,38.13
2023-02-15T18:57:06.537Z,40.45
2023-02-15T18:59:41.381Z,39.50
2023-02-15T19:02:17.217Z,37.25
2023-02-15T19:04:54.114Z,39.75
2023-02-15T19:07:30.075Z,40.57
2023-02-15T19:10:04.471Z,35.87
2023-02-15T19:12:38.380Z,38.23
2023-02-15T19:15:17.801Z,36.03
2023-02-15T19:17:52.600Z,36.23
2023-02-15T19:20:33.028Z,35.42
2023-02-15T19:23:07.919Z,36.13
2023-02-15T19:25:42.843Z,35.15
2023-02-15T19:28:20.654Z,35.95
2023-02-15T19:30:59.417Z,32.53
2023-02-15T19:33:35.054Z,33.10
2023-02-15T19:36:15.402Z,38.92
2023-02-15T19:38:51.283Z,34.60
2023-02-15T19:41:29.785Z,36.80
2023-02-15T19:44:04.538Z,34.50
2023-02-15T19:46:44.877Z,35.45
2023-02-15T19:49:20.174Z,32.13
2023-02-15T19:51:57.366Z,38.47
2023-02-15T19:54:36.417Z,57.88
2023-02-15T19:57:14.644Z,47.03
2023-02-15T19:59:54.122Z,58.65
2023-02-15T20:02:31.819Z,58.45
2023-02-15T20:05:08.683Z,51.60
2023-02-15T20:07:47.685Z,48.45
2023-02-15T20:10:28.414Z,53.47
2023-02-15T20:13:02.700Z,45.65
2023-02-15T20:15:40.100Z,49.20
2023-02-15T20:18:22.689Z,47.88
2023-02-15T20:20:58.717Z,47.45
2023-02-15T20:26:34.540Z,43.83
2023-02-15T20:29:19.724Z,48.15
2023-02-15T20:32:06.092Z,47.27
2023-02-15T20:34:45.854Z,47.57
2023-02-15T20:37:29.528Z,45.20
2023-02-15T20:40:12.280Z,44.15
2023-02-15T20:42:59.237Z,44.67
2023-02-15T20:45:37.599Z,41.20
2023-02-15T20:48:20.117Z,45.08
2023-02-15T20:51:05.306Z,40.03
2023-02-15T20:53:40.114Z,40.92
2023-02-15T20:56:17.350Z,40.50
2023-02-15T20:58:56.115Z,47.80
2023-02-15T21:01:35.419Z,48.03
2023-02-15T21:04:16.059Z,43.20
2023-02-15T21:06:53.306Z,42.65
2023-02-15T21:09:28.048Z,37.70
2023-02-15T21:12:04.002Z,35.67
2023-02-15T21:14:41.391Z,37.55
2023-02-15T21:17:16.879Z,40.25
2023-02-15T21:19:52.037Z,49.13
2023-02-15T21:22:27.218Z,50.00
2023-02-15T21:25:04.051Z,47.30
2023-02-15T21:27:39.194Z,45.10
2023-02-15T21:30:22.183Z,44.80
2023-02-15T21:32:57.031Z,45.42
2023-02-15T21:35:28.069Z,44.65
2023-02-15T21:38:03.540Z,43.65
2023-02-15T21:40:39.491Z,47.40
2023-02-15T21:43:30.805Z,43.60
2023-02-15T21:46:30.933Z,38.45
2023-02-15T21:49:07.755Z,46.13
2023-02-15T21:51:55.186Z,45.72
2023-02-15T21:54:31.782Z,51.03
2023-02-15T21:57:07.578Z,50.40
2023-02-15T21:59:43.223Z,52.22
2023-02-15T22:02:33.744Z,43.65
2023-02-15T22:05:12.648Z,46.60
2023-02-15T22:07:47.488Z,49.13
2023-02-15T22:10:22.991Z,41.38
2023-02-15T22:13:00.617Z,43.53
2023-02-15T22:15:34.530Z,43.38
2023-02-15T22:18:17.335Z,43.38
2023-02-15T22:20:52.046Z,37.38
2023-02-15T22:23:27.156Z,42.53
2023-02-15T22:26:02.383Z,43.53
2023-02-15T22:28:37.582Z,52.53
2023-02-15T22:31:15.609Z,47.93
2023-02-15T22:33:55.683Z,48.80
2023-02-15T22:36:31.798Z,54.13
2023-02-15T22:39:06.612Z,51.47
2023-02-15T22:41:41.685Z,51.80
2023-02-15T22:44:16.632Z,49.83
2023-02-15T22:46:51.935Z,49.13
2023-02-15T22:49:29.119Z,51.17
2023-02-15T22:52:03.604Z,50.92
2023-02-15T22:54:38.440Z,49.60
2023-02-15T22:57:12.764Z,47.20
2023-02-15T22:59:45.466Z,49.83
2023-02-15T23:02:19.618Z,51.75
2023-02-15T23:04:57.123Z,45.17
2023-02-15T23:07:31.664Z,49.25
2023-02-15T23:10:03.727Z,53.20
2023-02-15T23:13:03.377Z,49.28
2023-02-15T23:15:37.771Z,50.22
2023-02-15T23:18:20.264Z,52.00
2023-02-15T23:20:58.240Z,50.40
2023-02-15T23:23:35.898Z,42.50
2023-02-15T23:26:15.518Z,46.10
2023-02-15T23:28:49.777Z,44.00
2023-02-15T23:31:25.534Z,46.53
2023-02-15T23:34:00.382Z,43.10
2023-02-15T23:36:37.915Z,47.63
2023-02-15T23:39:28.197Z,42.70
2023-02-15T23:42:02.658Z,40.83
2023-02-15T23:44:37.352Z,49.45
2023-02-15T23:47:17.962Z,42.85
2023-02-15T23:49:54.747Z,43.42
2023-02-15T23:52:32.069Z,39.80
2023-02-15T23:55:06.409Z,45.45
2023-02-15T23:57:40.621Z,49.55
